createdAt,value
2019-05-15T00:04:01.226Z,101264.80
2019-05-15T00:09:04.462Z,101265.66
2019-05-15T00:14:08.512Z,101263.41
2019-05-15T00:19:09.617Z,101262.45
2019-05-15T00:24:13.114Z,101252.19
2019-05-15T00:29:16.386Z,101244.09
2019-05-15T00:34:18.425Z,101253.02
2019-05-15T00:39:20.016Z,101253.75
2019-05-15T00:44:21.599Z,101241.93
2019-05-15T00:49:26.164Z,101241.47
2019-05-15T00:54:28.965Z,101247.17
2019-05-15T00:59:30.577Z,101244.05
2019-05-15T01:04:32.144Z,101231.80
2019-05-15T01:09:33.697Z,101224.98
2019-05-15T01:14:35.246Z,101214.36
2019-05-15T01:19:38.119Z,101214.59
2019-05-15T01:24:39.861Z,101210.29
2019-05-15T01:29:45.202Z,101212.17
2019-05-15T01:34:46.076Z,101208.77
2019-05-15T01:39:48.556Z,101206.15
2019-05-15T01:44:50.293Z,101200.11
2019-05-15T01:49:51.899Z,101194.66
2019-05-15T01:54:53.453Z,101199.66
2019-05-15T01:59:58.298Z,101191.19
2019-05-15T02:04:59.240Z,101186.59
2019-05-15T02:10:02.527Z,101185.48
2019-05-15T02:15:04.772Z,101180.25
2019-05-15T02:20:08.310Z,101185.84
2019-05-15T02:25:10.407Z,101183.03
2019-05-15T02:30:22.638Z,101181.31
2019-05-15T02:35:18.394Z,101182.07
2019-05-15T02:40:19.401Z,101183.95
2019-05-15T02:45:21.081Z,101173.09
2019-05-15T02:50:22.759Z,101181.24
2019-05-15T02:55:24.320Z,101176.86
2019-05-15T03:00:37.835Z,101169.74
2019-05-15T03:05:29.695Z,101170.54
2019-05-15T03:10:31.445Z,101180.47
2019-05-15T03:15:33.249Z,101177.32
2019-05-15T03:20:34.807Z,101168.87
2019-05-15T03:25:39.858Z,101167.94
2019-05-15T03:31:11.419Z,101175.02
2019-05-15T03:35:44.714Z,101170.03
2019-05-15T03:40:49.612Z,101175.63
2019-05-15T03:45:50.263Z,101173.10
2019-05-15T03:50:51.952Z,101180.67
2019-05-15T03:55:53.516Z,101180.73
2019-05-15T04:00:55.239Z,101183.02
2019-05-15T04:06:00.228Z,101181.28
2019-05-15T04:11:00.504Z,101190.41
2019-05-15T04:16:02.174Z,101187.39
2019-05-15T04:21:04.129Z,101192.89
2019-05-15T04:26:09.327Z,101180.86
2019-05-15T04:31:10.178Z,101194.33
2019-05-15T04:36:11.854Z,101186.92
2019-05-15T04:41:13.434Z,101190.49
2019-05-15T04:46:15.136Z,101180.89
2019-05-15T04:51:19.042Z,101186.69
2019-05-15T04:56:20.481Z,101193.10
2019-05-15T05:01:22.217Z,101193.38
2019-05-15T05:06:23.865Z,101189.09
2019-05-15T05:11:25.551Z,101195.14
2019-05-15T05:16:29.541Z,101201.80
2019-05-15T05:21:30.676Z,101201.62
2019-05-15T05:26:32.334Z,101201.91
2019-05-15T05:31:33.954Z,101202.36
2019-05-15T05:36:35.542Z,101205.56
2019-05-15T05:41:39.191Z,101210.73
2019-05-15T05:46:40.691Z,101208.81
2019-05-15T05:51:42.257Z,101198.85
2019-05-15T05:56:43.819Z,101197.30
2019-05-15T06:01:45.379Z,101190.59
2019-05-15T06:06:50.091Z,101189.81
2019-05-15T06:11:50.603Z,101200.37
2019-05-15T06:16:52.171Z,101197.64
2019-05-15T06:21:57.602Z,101193.78
2019-05-15T06:26:58.668Z,101192.94
2019-05-15T06:32:00.524Z,101183.69
2019-05-15T06:37:02.337Z,101177.69
2019-05-15T06:42:03.939Z,101180.41
2019-05-15T06:47:08.070Z,101190.44
2019-05-15T06:52:09.023Z,101187.01
2019-05-15T06:57:10.578Z,101189.66
2019-05-15T07:02:12.288Z,101191.66
2019-05-15T07:07:13.943Z,101187.39
2019-05-15T07:12:15.650Z,101183.58
2019-05-15T07:17:17.735Z,101186.78
2019-05-15T07:22:19.533Z,101181.52
2019-05-15T07:27:21.089Z,101185.81
2019-05-15T07:32:22.650Z,101179.87
2019-05-15T07:37:24.215Z,101174.36
2019-05-15T07:42:25.907Z,101174.98
2019-05-15T07:47:29.293Z,101177.69
2019-05-15T07:52:31.049Z,101172.91
2019-05-15T07:57:32.704Z,101173.96
2019-05-15T08:02:34.276Z,101165.36
2019-05-15T08:07:38.618Z,101178.39
2019-05-15T08:12:39.686Z,101182.69
2019-05-15T08:18:02.644Z,101166.79
2019-05-15T08:22:45.966Z,101162.39
2019-05-15T08:27:48.482Z,101163.92
2019-05-15T08:32:51.723Z,101163.85
2019-05-15T08:37:53.693Z,101155.82
2019-05-15T08:42:59.504Z,101152.17
2019-05-15T08:47:58.899Z,101142.45
2019-05-15T08:53:00.485Z,101137.89
2019-05-15T08:58:07.276Z,101132.05
2019-05-15T09:03:05.782Z,101132.14
2019-05-15T09:08:09.321Z,101127.94
2019-05-15T09:13:10.903Z,101131.06
2019-05-15T09:18:16.258Z,101128.03
2019-05-15T09:23:18.840Z,101120.56
2019-05-15T09:28:19.654Z,101110.81
2019-05-15T09:33:21.442Z,101099.48
2019-05-15T09:38:22.987Z,101106.35
2019-05-15T09:43:24.551Z,101112.33
2019-05-15T09:48:28.602Z,101108.33
2019-05-15T09:53:29.786Z,101107.98
2019-05-15T09:58:31.332Z,101092.41
2019-05-15T10:03:33.049Z,101083.25
2019-05-15T10:08:34.720Z,101079.90
2019-05-15T10:13:38.431Z,101077.18
2019-05-15T10:18:40.006Z,101071.80
2019-05-15T10:23:41.647Z,101066.32
2019-05-15T10:28:43.243Z,101060.11
2019-05-15T10:33:44.829Z,101058.95
2019-05-15T10:38:48.852Z,101054.86
2019-05-15T10:43:56.349Z,101046.19
2019-05-15T10:48:53.529Z,101040.46
2019-05-15T10:53:55.085Z,101030.67
2019-05-15T10:58:58.916Z,101032.64
2019-05-15T11:04:00.242Z,101029.45
2019-05-15T11:09:01.968Z,101030.15
2019-05-15T11:14:04.045Z,101021.28
2019-05-15T11:19:07.877Z,101024.69
2019-05-15T11:24:09.051Z,101016.37
2019-05-15T11:29:10.609Z,101010.61
2019-05-15T11:34:12.169Z,101005.84
2019-05-15T11:39:13.755Z,101007.91
2019-05-15T11:44:15.387Z,101003.54
2019-05-15T11:49:18.256Z,101003.89
2019-05-15T11:54:20.056Z,101002.92
2019-05-15T11:59:21.585Z,101005.73
2019-05-15T12:04:30.458Z,100992.86
2019-05-15T12:09:28.277Z,100984.29
2019-05-15T12:14:30.052Z,100991.89
2019-05-15T12:19:32.320Z,100986.26
2019-05-15T12:24:36.788Z,100981.31
2019-05-15T12:29:39.858Z,100973.66
2019-05-15T12:34:40.931Z,100964.25
2019-05-15T12:39:42.474Z,100963.69
2019-05-15T12:59:54.521Z,100957.77
2019-05-15T13:04:56.180Z,100950.48
2019-05-15T13:09:58.009Z,100959.19
2019-05-15T13:14:59.621Z,100958.86
2019-05-15T13:20:01.419Z,100952.15
2019-05-15T13:25:03.708Z,100946.20
2019-05-15T13:30:08.799Z,100944.41
2019-05-15T13:35:10.329Z,100938.64
2019-05-15T13:40:12.067Z,100938.64
2019-05-15T13:45:13.915Z,100922.99
2019-05-15T13:50:15.687Z,100931.42
2019-05-15T13:55:24.637Z,100918.13
2019-05-15T14:00:21.244Z,100914.70
2019-05-15T14:05:22.796Z,100911.78
2019-05-15T14:10:24.343Z,100908.86
2019-05-15T14:15:26.048Z,100917.92
2019-05-15T14:20:27.594Z,100916.95
2019-05-15T14:25:29.235Z,100905.61
2019-05-15T14:30:30.872Z,100904.11
2019-05-15T14:35:32.520Z,100898.31
2019-05-15T14:40:34.182Z,100899.47
2019-05-15T14:45:35.842Z,100892.08
2019-05-15T14:50:38.393Z,100892.70
2019-05-15T14:55:44.041Z,100885.77
2019-05-15T15:00:43.969Z,100882.64
2019-05-15T15:05:45.698Z,100884.12
2019-05-15T15:10:47.273Z,100879.01
2019-05-15T15:15:48.816Z,100883.38
2019-05-15T15:20:50.653Z,100879.52
2019-05-15T15:25:52.267Z,100882.13
2019-05-15T15:30:53.808Z,100883.51
2019-05-15T15:35:55.505Z,100886.58
2019-05-15T15:41:00.061Z,100878.16
2019-05-15T15:46:00.776Z,100874.20
2019-05-15T15:51:02.342Z,100884.83
2019-05-15T15:56:06.899Z,100877.97
2019-05-15T16:01:09.062Z,100871.33
2019-05-15T16:06:13.148Z,100864.77
2019-05-15T16:11:14.990Z,100851.89
2019-05-15T16:16:17.959Z,100849.80
2019-05-15T16:21:19.687Z,100843.50
2019-05-15T16:26:21.239Z,100851.42
2019-05-15T16:31:22.784Z,100866.00
2019-05-15T16:36:24.679Z,100855.72
2019-05-15T16:41:28.823Z,100843.53
2019-05-15T16:46:30.038Z,100824.80
2019-05-15T16:51:32.450Z,100828.52
2019-05-15T16:56:36.425Z,100822.45
2019-05-15T17:01:39.339Z,100828.74
2019-05-15T17:06:41.293Z,100824.58
2019-05-15T17:11:43.057Z,100831.47
2019-05-15T17:16:44.648Z,100825.70
2019-05-15T17:21:48.184Z,100833.85
2019-05-15T17:26:51.907Z,100825.33
2019-05-15T17:31:54.055Z,100830.13
2019-05-15T17:36:58.169Z,100827.00
2019-05-15T17:41:59.519Z,100823.48
2019-05-15T17:47:01.312Z,100824.11
2019-05-15T17:52:03.212Z,100821.82
2019-05-15T17:57:04.839Z,100823.48
2019-05-15T18:02:08.535Z,100823.48
2019-05-15T18:07:10.062Z,100822.11
2019-05-15T18:12:12.725Z,100816.66
2019-05-15T18:17:14.582Z,100815.47
2019-05-15T18:22:18.085Z,100813.61
2019-05-15T18:27:19.627Z,100802.91
2019-05-15T18:32:21.363Z,100802.22
2019-05-15T18:37:22.955Z,100796.45
2019-05-15T18:42:24.945Z,100792.16
2019-05-15T18:47:28.031Z,100790.03
2019-05-15T18:52:29.698Z,100787.06
2019-05-15T18:57:31.293Z,100774.03
2019-05-15T19:02:32.976Z,100780.48
2019-05-15T19:07:34.569Z,100773.38
2019-05-15T19:12:37.890Z,100767.45
2019-05-15T19:17:39.583Z,100762.36
2019-05-15T19:22:48.484Z,100759.37
2019-05-15T19:27:50.029Z,100762.98
2019-05-15T19:32:51.591Z,100764.39
2019-05-15T19:37:53.342Z,100763.57
2019-05-15T19:42:54.962Z,100756.59
2019-05-15T19:47:58.648Z,100759.22
2019-05-15T19:53:00.072Z,100758.72
2019-05-15T19:58:01.802Z,100760.38
2019-05-15T20:03:03.585Z,100761.84
2019-05-15T20:08:05.250Z,100762.47
2019-05-15T20:13:06.800Z,100760.66
2019-05-15T20:18:08.371Z,100762.97
2019-05-15T20:23:10.051Z,100758.62
2019-05-15T20:28:12.698Z,100754.27
2019-05-15T20:33:14.292Z,100755.73
2019-05-15T20:38:16.030Z,100746.88
2019-05-15T20:43:18.553Z,100740.77
2019-05-15T20:48:20.255Z,100737.33
2019-05-15T20:53:21.993Z,100736.83
2019-05-15T20:58:23.610Z,100732.70
2019-05-15T21:03:25.215Z,100729.88
2019-05-15T21:08:28.764Z,100728.34
2019-05-15T21:13:30.334Z,100719.08
2019-05-15T21:18:31.918Z,100714.13
2019-05-15T21:23:33.512Z,100706.59
2019-05-15T21:28:35.075Z,100702.65
2019-05-15T21:33:36.690Z,100696.70
2019-05-15T21:38:38.838Z,100694.08
2019-05-15T21:43:40.638Z,100690.60
2019-05-15T21:48:42.178Z,100679.62
2019-05-15T21:53:43.748Z,100678.44
2019-05-15T21:58:45.283Z,100672.36
2019-05-15T22:03:48.168Z,100669.60
2019-05-15T22:08:49.993Z,100669.91
2019-05-15T22:13:51.617Z,100658.75
2019-05-15T22:18:53.162Z,100662.28
2019-05-15T22:23:55.021Z,100660.37
2019-05-15T22:28:58.441Z,100655.06
2019-05-15T22:34:00.457Z,100643.39
2019-05-15T22:39:02.353Z,100636.48
2019-05-15T22:44:04.037Z,100630.06
2019-05-15T22:49:05.872Z,100626.41
2019-05-15T22:54:08.618Z,100616.59
2019-05-15T22:59:10.404Z,100616.43
2019-05-15T23:04:12.275Z,100613.67
2019-05-15T23:09:13.827Z,100608.02
2019-05-15T23:14:15.383Z,100603.38
2019-05-15T23:19:18.701Z,100598.88
2019-05-15T23:24:20.631Z,100595.87
2019-05-15T23:29:22.188Z,100582.05
2019-05-15T23:34:23.753Z,100580.23
2019-05-15T23:39:25.422Z,100574.34
2019-05-15T23:44:27.677Z,100577.31
2019-05-15T23:49:29.618Z,100567.48
2019-05-15T23:54:31.145Z,100563.45
2019-05-15T23:59:32.818Z,100559.45
